sensor_id;sensor_type;location;lat;lon;timestamp;P1;durP1;ratioP1;P2;durP2;ratioP2
32365;SDS011;18837;46.832;16.838;2023-06-14T00:01:45;2.60;;;2.10;;
32365;SDS011;18837;46.832;16.838;2023-06-14T00:04:11;4.63;;;2.63;;
32365;SDS011;18837;46.832;16.838;2023-06-14T00:06:37;3.67;;;2.57;;
32365;SDS011;18837;46.832;16.838;2023-06-14T00:09:03;4.27;;;2.47;;
32365;SDS011;18837;46.832;16.838;2023-06-14T00:11:30;2.37;;;2.00;;
32365;SDS011;18837;46.832;16.838;2023-06-14T00:13:56;2.63;;;2.30;;
32365;SDS011;18837;46.832;16.838;2023-06-14T00:16:22;5.57;;;2.70;;
32365;SDS011;18837;46.832;16.838;2023-06-14T00:18:48;2.50;;;2.20;;
32365;SDS011;18837;46.832;16.838;2023-06-14T00:21:16;3.70;;;2.10;;
32365;SDS011;18837;46.832;16.838;2023-06-14T00:23:42;2.43;;;2.23;;
32365;SDS011;18837;46.832;16.838;2023-06-14T00:26:08;3.20;;;2.37;;
32365;SDS011;18837;46.832;16.838;2023-06-14T00:28:34;3.67;;;2.50;;
32365;SDS011;18837;46.832;16.838;2023-06-14T00:31:00;3.43;;;2.30;;
32365;SDS011;18837;46.832;16.838;2023-06-14T00:33:26;2.87;;;2.23;;
32365;SDS011;18837;46.832;16.838;2023-06-14T00:35:51;3.57;;;2.20;;
32365;SDS011;18837;46.832;16.838;2023-06-14T00:38:19;3.67;;;2.53;;
32365;SDS011;18837;46.832;16.838;2023-06-14T00:40:46;2.80;;;2.20;;
32365;SDS011;18837;46.832;16.838;2023-06-14T00:43:12;4.07;;;2.00;;
32365;SDS011;18837;46.832;16.838;2023-06-14T00:45:37;2.93;;;1.90;;
32365;SDS011;18837;46.832;16.838;2023-06-14T00:48:05;2.60;;;2.30;;
32365;SDS011;18837;46.832;16.838;2023-06-14T00:50:34;2.63;;;2.43;;
32365;SDS011;18837;46.832;16.838;2023-06-14T00:53:01;2.50;;;2.30;;
32365;SDS011;18837;46.832;16.838;2023-06-14T00:55:28;3.33;;;2.40;;
32365;SDS011;18837;46.832;16.838;2023-06-14T00:57:58;3.83;;;2.13;;
32365;SDS011;18837;46.832;16.838;2023-06-14T01:00:24;2.97;;;2.30;;
32365;SDS011;18837;46.832;16.838;2023-06-14T01:02:49;2.57;;;2.37;;
32365;SDS011;18837;46.832;16.838;2023-06-14T01:05:15;4.23;;;2.63;;
32365;SDS011;18837;46.832;16.838;2023-06-14T01:13:13;2.40;;;1.97;;
32365;SDS011;18837;46.832;16.838;2023-06-14T01:15:45;3.43;;;2.30;;
32365;SDS011;18837;46.832;16.838;2023-06-14T01:18:13;2.23;;;2.00;;
32365;SDS011;18837;46.832;16.838;2023-06-14T01:20:47;2.37;;;2.17;;
32365;SDS011;18837;46.832;16.838;2023-06-14T01:23:18;3.43;;;2.13;;
32365;SDS011;18837;46.832;16.838;2023-06-14T01:25:45;2.40;;;2.20;;
32365;SDS011;18837;46.832;16.838;2023-06-14T01:28:12;2.90;;;2.30;;
32365;SDS011;18837;46.832;16.838;2023-06-14T01:30:42;2.53;;;2.33;;
32365;SDS011;18837;46.832;16.838;2023-06-14T01:33:16;3.73;;;2.53;;
32365;SDS011;18837;46.832;16.838;2023-06-14T01:35:45;2.67;;;2.40;;
32365;SDS011;18837;46.832;16.838;2023-06-14T01:38:17;3.50;;;2.30;;
32365;SDS011;18837;46.832;16.838;2023-06-14T01:40:45;2.40;;;2.20;;
32365;SDS011;18837;46.832;16.838;2023-06-14T01:43:14;2.63;;;2.40;;
32365;SDS011;18837;46.832;16.838;2023-06-14T01:45:42;2.90;;;2.30;;
32365;SDS011;18837;46.832;16.838;2023-06-14T01:48:09;3.57;;;2.50;;
32365;SDS011;18837;46.832;16.838;2023-06-14T01:50:35;2.60;;;2.40;;
32365;SDS011;18837;46.832;16.838;2023-06-14T01:53:01;2.60;;;2.40;;
32365;SDS011;18837;46.832;16.838;2023-06-14T01:55:27;3.30;;;2.40;;
32365;SDS011;18837;46.832;16.838;2023-06-14T01:57:54;3.80;;;2.23;;
32365;SDS011;18837;46.832;16.838;2023-06-14T02:00:20;3.10;;;2.43;;
32365;SDS011;18837;46.832;16.838;2023-06-14T02:02:46;2.30;;;2.07;;
32365;SDS011;18837;46.832;16.838;2023-06-14T02:05:12;3.07;;;2.20;;
32365;SDS011;18837;46.832;16.838;2023-06-14T02:07:38;3.00;;;2.20;;
32365;SDS011;18837;46.832;16.838;2023-06-14T02:10:05;3.03;;;2.60;;
32365;SDS011;18837;46.832;16.838;2023-06-14T02:12:31;6.57;;;2.47;;
32365;SDS011;18837;46.832;16.838;2023-06-14T02:14:57;2.97;;;2.10;;
32365;SDS011;18837;46.832;16.838;2023-06-14T02:17:23;3.03;;;1.97;;
32365;SDS011;18837;46.832;16.838;2023-06-14T02:19:49;2.67;;;2.30;;
32365;SDS011;18837;46.832;16.838;2023-06-14T02:22:15;5.67;;;2.60;;
32365;SDS011;18837;46.832;16.838;2023-06-14T02:24:42;2.27;;;2.10;;
32365;SDS011;18837;46.832;16.838;2023-06-14T02:27:08;2.87;;;2.53;;
32365;SDS011;18837;46.832;16.838;2023-06-14T02:29:36;2.60;;;2.40;;
32365;SDS011;18837;46.832;16.838;2023-06-14T02:32:03;2.40;;;2.20;;
32365;SDS011;18837;46.832;16.838;2023-06-14T02:34:29;2.20;;;2.00;;
32365;SDS011;18837;46.832;16.838;2023-06-14T02:36:55;2.20;;;2.00;;
32365;SDS011;18837;46.832;16.838;2023-06-14T02:39:22;2.80;;;2.03;;
32365;SDS011;18837;46.832;16.838;2023-06-14T02:41:48;2.40;;;2.20;;
32365;SDS011;18837;46.832;16.838;2023-06-14T02:44:17;2.50;;;2.30;;
32365;SDS011;18837;46.832;16.838;2023-06-14T02:46:44;2.43;;;2.23;;
32365;SDS011;18837;46.832;16.838;2023-06-14T02:49:10;2.87;;;2.30;;
32365;SDS011;18837;46.832;16.838;2023-06-14T02:51:40;2.50;;;2.30;;
32365;SDS011;18837;46.832;16.838;2023-06-14T02:54:06;3.27;;;2.37;;
32365;SDS011;18837;46.832;16.838;2023-06-14T02:56:31;2.77;;;2.53;;
32365;SDS011;18837;46.832;16.838;2023-06-14T02:58:57;4.60;;;2.57;;
32365;SDS011;18837;46.832;16.838;2023-06-14T03:01:24;2.60;;;2.40;;
32365;SDS011;18837;46.832;16.838;2023-06-14T03:04:02;2.60;;;2.40;;
32365;SDS011;18837;46.832;16.838;2023-06-14T03:06:35;2.93;;;2.37;;
32365;SDS011;18837;46.832;16.838;2023-06-14T03:09:02;2.77;;;2.40;;
32365;SDS011;18837;46.832;16.838;2023-06-14T03:11:31;2.73;;;2.43;;
32365;SDS011;18837;46.832;16.838;2023-06-14T03:13:57;2.80;;;2.23;;
32365;SDS011;18837;46.832;16.838;2023-06-14T03:16:23;2.57;;;2.20;;
32365;SDS011;18837;46.832;16.838;2023-06-14T03:18:52;2.97;;;2.60;;
32365;SDS011;18837;46.832;16.838;2023-06-14T03:21:19;2.60;;;2.30;;
32365;SDS011;18837;46.832;16.838;2023-06-14T03:23:47;2.73;;;2.50;;
32365;SDS011;18837;46.832;16.838;2023-06-14T03:26:14;2.87;;;2.53;;
32365;SDS011;18837;46.832;16.838;2023-06-14T03:28:43;2.40;;;2.20;;
32365;SDS011;18837;46.832;16.838;2023-06-14T03:31:10;2.60;;;2.40;;
32365;SDS011;18837;46.832;16.838;2023-06-14T03:33:36;3.33;;;2.67;;
32365;SDS011;18837;46.832;16.838;2023-06-14T03:36:02;3.37;;;2.23;;
32365;SDS011;18837;46.832;16.838;2023-06-14T03:38:28;4.87;;;2.57;;
32365;SDS011;18837;46.832;16.838;2023-06-14T03:40:54;2.97;;;2.60;;
32365;SDS011;18837;46.832;16.838;2023-06-14T03:43:20;2.87;;;2.33;;
32365;SDS011;18837;46.832;16.838;2023-06-14T03:45:50;2.83;;;2.47;;
32365;SDS011;18837;46.832;16.838;2023-06-14T03:48:16;4.20;;;2.60;;
32365;SDS011;18837;46.832;16.838;2023-06-14T03:50:42;5.80;;;2.60;;
32365;SDS011;18837;46.832;16.838;2023-06-14T03:53:09;4.30;;;2.83;;
32365;SDS011;18837;46.832;16.838;2023-06-14T03:55:35;3.10;;;2.47;;
32365;SDS011;18837;46.832;16.838;2023-06-14T03:58:03;2.33;;;2.13;;
32365;SDS011;18837;46.832;16.838;2023-06-14T04:00:29;3.13;;;2.80;;
32365;SDS011;18837;46.832;16.838;2023-06-14T04:02:55;5.27;;;2.90;;
32365;SDS011;18837;46.832;16.838;2023-06-14T04:05:21;3.43;;;2.70;;
32365;SDS011;18837;46.832;16.838;2023-06-14T04:07:51;4.07;;;2.87;;
32365;SDS011;18837;46.832;16.838;2023-06-14T04:10:17;3.77;;;2.90;;
32365;SDS011;18837;46.832;16.838;2023-06-14T04:12:43;3.63;;;2.20;;
32365;SDS011;18837;46.832;16.838;2023-06-14T04:15:08;3.90;;;2.70;;
32365;SDS011;18837;46.832;16.838;2023-06-14T04:17:35;3.30;;;2.70;;
32365;SDS011;18837;46.832;16.838;2023-06-14T04:20:02;4.73;;;2.67;;
32365;SDS011;18837;46.832;16.838;2023-06-14T04:22:32;3.83;;;3.20;;
32365;SDS011;18837;46.832;16.838;2023-06-14T04:24:58;3.30;;;2.80;;
32365;SDS011;18837;46.832;16.838;2023-06-14T04:27:25;4.00;;;2.67;;
32365;SDS011;18837;46.832;16.838;2023-06-14T04:29:55;2.60;;;2.40;;
32365;SDS011;18837;46.832;16.838;2023-06-14T04:32:27;2.60;;;2.40;;
32365;SDS011;18837;46.832;16.838;2023-06-14T04:35:03;3.87;;;2.50;;
32365;SDS011;18837;46.832;16.838;2023-06-14T04:37:30;5.83;;;2.67;;
32365;SDS011;18837;46.832;16.838;2023-06-14T04:39:56;3.03;;;2.47;;
32365;SDS011;18837;46.832;16.838;2023-06-14T04:42:23;3.20;;;2.47;;
32365;SDS011;18837;46.832;16.838;2023-06-14T04:44:56;4.00;;;2.60;;
32365;SDS011;18837;46.832;16.838;2023-06-14T04:47:22;2.67;;;2.47;;
32365;SDS011;18837;46.832;16.838;2023-06-14T04:49:54;3.50;;;2.83;;
32365;SDS011;18837;46.832;16.838;2023-06-14T04:52:22;3.20;;;2.50;;
32365;SDS011;18837;46.832;16.838;2023-06-14T04:54:48;5.90;;;3.00;;
32365;SDS011;18837;46.832;16.838;2023-06-14T04:57:13;2.97;;;2.67;;
32365;SDS011;18837;46.832;16.838;2023-06-14T04:59:42;4.90;;;2.67;;
32365;SDS011;18837;46.832;16.838;2023-06-14T05:02:09;3.93;;;2.60;;
32365;SDS011;18837;46.832;16.838;2023-06-14T05:04:36;4.30;;;3.00;;
32365;SDS011;18837;46.832;16.838;2023-06-14T05:07:06;4.93;;;2.97;;
32365;SDS011;18837;46.832;16.838;2023-06-14T05:09:32;4.47;;;2.93;;
32365;SDS011;18837;46.832;16.838;2023-06-14T05:11:58;4.00;;;2.60;;
32365;SDS011;18837;46.832;16.838;2023-06-14T05:14:27;3.30;;;2.50;;
32365;SDS011;18837;46.832;16.838;2023-06-14T05:16:53;3.67;;;2.57;;
32365;SDS011;18837;46.832;16.838;2023-06-14T05:19:19;3.40;;;2.80;;
32365;SDS011;18837;46.832;16.838;2023-06-14T05:21:46;4.87;;;2.70;;
32365;SDS011;18837;46.832;16.838;2023-06-14T05:24:12;3.00;;;2.70;;
32365;SDS011;18837;46.832;16.838;2023-06-14T05:26:44;3.50;;;3.10;;
32365;SDS011;18837;46.832;16.838;2023-06-14T05:29:11;3.90;;;2.60;;
32365;SDS011;18837;46.832;16.838;2023-06-14T05:31:36;3.03;;;2.67;;
32365;SDS011;18837;46.832;16.838;2023-06-14T05:34:02;2.60;;;2.40;;
32365;SDS011;18837;46.832;16.838;2023-06-14T05:36:28;4.40;;;2.63;;
32365;SDS011;18837;46.832;16.838;2023-06-14T05:38:54;3.27;;;2.50;;
32365;SDS011;18837;46.832;16.838;2023-06-14T05:41:27;3.00;;;2.70;;
32365;SDS011;18837;46.832;16.838;2023-06-14T05:43:54;2.93;;;2.40;;
32365;SDS011;18837;46.832;16.838;2023-06-14T05:46:21;3.30;;;3.00;;
32365;SDS011;18837;46.832;16.838;2023-06-14T05:48:47;3.53;;;2.37;;
32365;SDS011;18837;46.832;16.838;2023-06-14T05:51:14;5.57;;;2.60;;
32365;SDS011;18837;46.832;16.838;2023-06-14T05:53:44;5.17;;;2.83;;
32365;SDS011;18837;46.832;16.838;2023-06-14T05:56:13;4.10;;;2.80;;
32365;SDS011;18837;46.832;16.838;2023-06-14T05:58:39;6.67;;;3.23;;
32365;SDS011;18837;46.832;16.838;2023-06-14T06:01:05;3.30;;;2.67;;
32365;SDS011;18837;46.832;16.838;2023-06-14T06:03:31;4.60;;;3.17;;
32365;SDS011;18837;46.832;16.838;2023-06-14T06:05:58;4.60;;;2.97;;
32365;SDS011;18837;46.832;16.838;2023-06-14T06:08:24;4.27;;;3.20;;
32365;SDS011;18837;46.832;16.838;2023-06-14T06:10:49;3.07;;;2.67;;
32365;SDS011;18837;46.832;16.838;2023-06-14T06:13:15;3.67;;;3.20;;
32365;SDS011;18837;46.832;16.838;2023-06-14T06:15:41;3.40;;;2.87;;
32365;SDS011;18837;46.832;16.838;2023-06-14T06:18:07;3.30;;;3.00;;
32365;SDS011;18837;46.832;16.838;2023-06-14T06:20:32;4.07;;;3.33;;
32365;SDS011;18837;46.832;16.838;2023-06-14T06:22:58;3.33;;;3.00;;
32365;SDS011;18837;46.832;16.838;2023-06-14T06:25:27;4.73;;;3.33;;
32365;SDS011;18837;46.832;16.838;2023-06-14T06:27:53;4.97;;;3.47;;
32365;SDS011;18837;46.832;16.838;2023-06-14T06:30:21;4.00;;;2.90;;
32365;SDS011;18837;46.832;16.838;2023-06-14T06:32:47;3.43;;;2.70;;
32365;SDS011;18837;46.832;16.838;2023-06-14T06:35:13;6.33;;;3.40;;
32365;SDS011;18837;46.832;16.838;2023-06-14T06:37:40;3.70;;;3.03;;
32365;SDS011;18837;46.832;16.838;2023-06-14T06:40:07;3.53;;;2.90;;
32365;SDS011;18837;46.832;16.838;2023-06-14T06:42:33;3.53;;;3.00;;
32365;SDS011;18837;46.832;16.838;2023-06-14T06:44:59;4.30;;;2.70;;
32365;SDS011;18837;46.832;16.838;2023-06-14T06:47:25;2.77;;;2.50;;
32365;SDS011;18837;46.832;16.838;2023-06-14T06:49:51;7.87;;;3.60;;
32365;SDS011;18837;46.832;16.838;2023-06-14T06:52:17;15.27;;;4.00;;
32365;SDS011;18837;46.832;16.838;2023-06-14T06:54:43;8.10;;;3.60;;
32365;SDS011;18837;46.832;16.838;2023-06-14T06:57:09;10.27;;;3.60;;
32365;SDS011;18837;46.832;16.838;2023-06-14T06:59:36;8.67;;;3.50;;
32365;SDS011;18837;46.832;16.838;2023-06-14T07:02:02;4.37;;;3.13;;
32365;SDS011;18837;46.832;16.838;2023-06-14T07:04:28;7.63;;;3.27;;
32365;SDS011;18837;46.832;16.838;2023-06-14T07:06:54;6.87;;;3.43;;
32365;SDS011;18837;46.832;16.838;2023-06-14T07:09:22;8.03;;;3.20;;
32365;SDS011;18837;46.832;16.838;2023-06-14T07:11:49;4.37;;;3.20;;
32365;SDS011;18837;46.832;16.838;2023-06-14T07:14:14;4.93;;;3.20;;
32365;SDS011;18837;46.832;16.838;2023-06-14T07:16:40;8.70;;;3.33;;
32365;SDS011;18837;46.832;16.838;2023-06-14T07:19:06;4.27;;;3.17;;
32365;SDS011;18837;46.832;16.838;2023-06-14T07:21:34;6.27;;;3.37;;
32365;SDS011;18837;46.832;16.838;2023-06-14T07:24:00;3.87;;;3.03;;
32365;SDS011;18837;46.832;16.838;2023-06-14T07:26:26;5.43;;;3.13;;
32365;SDS011;18837;46.832;16.838;2023-06-14T07:28:51;5.90;;;3.20;;
32365;SDS011;18837;46.832;16.838;2023-06-14T07:31:17;3.30;;;3.00;;
32365;SDS011;18837;46.832;16.838;2023-06-14T07:33:44;3.83;;;3.20;;
32365;SDS011;18837;46.832;16.838;2023-06-14T07:36:10;7.33;;;3.33;;
32365;SDS011;18837;46.832;16.838;2023-06-14T07:38:36;3.83;;;3.10;;
32365;SDS011;18837;46.832;16.838;2023-06-14T07:41:02;3.70;;;3.30;;
32365;SDS011;18837;46.832;16.838;2023-06-14T07:43:28;5.07;;;3.30;;
32365;SDS011;18837;46.832;16.838;2023-06-14T07:45:54;4.23;;;3.10;;
32365;SDS011;18837;46.832;16.838;2023-06-14T07:48:20;4.53;;;3.07;;
32365;SDS011;18837;46.832;16.838;2023-06-14T07:50:46;3.80;;;2.80;;
32365;SDS011;18837;46.832;16.838;2023-06-14T07:53:11;3.10;;;2.77;;
32365;SDS011;18837;46.832;16.838;2023-06-14T07:55:37;3.70;;;3.33;;
32365;SDS011;18837;46.832;16.838;2023-06-14T07:58:04;4.03;;;2.90;;
32365;SDS011;18837;46.832;16.838;2023-06-14T08:00:33;5.30;;;3.23;;
32365;SDS011;18837;46.832;16.838;2023-06-14T08:02:59;3.73;;;3.20;;
32365;SDS011;18837;46.832;16.838;2023-06-14T08:05:25;5.67;;;3.07;;
32365;SDS011;18837;46.832;16.838;2023-06-14T08:07:52;4.20;;;3.10;;
32365;SDS011;18837;46.832;16.838;2023-06-14T08:10:18;3.80;;;3.40;;
32365;SDS011;18837;46.832;16.838;2023-06-14T08:12:44;5.07;;;3.40;;
32365;SDS011;18837;46.832;16.838;2023-06-14T08:15:10;3.90;;;3.17;;
32365;SDS011;18837;46.832;16.838;2023-06-14T08:17:36;5.00;;;3.10;;
32365;SDS011;18837;46.832;16.838;2023-06-14T08:20:03;4.30;;;3.30;;
32365;SDS011;18837;46.832;16.838;2023-06-14T08:22:30;3.90;;;3.30;;
32365;SDS011;18837;46.832;16.838;2023-06-14T08:24:59;3.87;;;3.17;;
32365;SDS011;18837;46.832;16.838;2023-06-14T08:27:26;3.40;;;3.10;;
32365;SDS011;18837;46.832;16.838;2023-06-14T08:29:52;3.40;;;3.10;;
32365;SDS011;18837;46.832;16.838;2023-06-14T08:32:17;4.20;;;3.23;;
32365;SDS011;18837;46.832;16.838;2023-06-14T08:34:43;3.30;;;3.00;;
32365;SDS011;18837;46.832;16.838;2023-06-14T08:37:09;3.70;;;3.30;;
32365;SDS011;18837;46.832;16.838;2023-06-14T08:39:35;3.73;;;3.33;;
32365;SDS011;18837;46.832;16.838;2023-06-14T08:42:02;4.73;;;3.33;;
32365;SDS011;18837;46.832;16.838;2023-06-14T08:44:32;3.77;;;3.30;;
32365;SDS011;18837;46.832;16.838;2023-06-14T08:46:58;5.43;;;3.53;;
32365;SDS011;18837;46.832;16.838;2023-06-14T08:49:26;5.47;;;3.87;;
32365;SDS011;18837;46.832;16.838;2023-06-14T08:51:58;3.70;;;3.30;;
32365;SDS011;18837;46.832;16.838;2023-06-14T08:54:29;4.60;;;3.50;;
32365;SDS011;18837;46.832;16.838;2023-06-14T08:56:58;3.30;;;3.00;;
32365;SDS011;18837;46.832;16.838;2023-06-14T08:59:28;4.23;;;3.23;;
32365;SDS011;18837;46.832;16.838;2023-06-14T09:01:56;3.90;;;3.40;;
32365;SDS011;18837;46.832;16.838;2023-06-14T09:04:22;5.77;;;3.13;;
32365;SDS011;18837;46.832;16.838;2023-06-14T09:06:50;5.50;;;3.33;;
32365;SDS011;18837;46.832;16.838;2023-06-14T09:09:20;6.03;;;4.40;;
32365;SDS011;18837;46.832;16.838;2023-06-14T09:11:48;10.93;;;4.10;;
32365;SDS011;18837;46.832;16.838;2023-06-14T09:14:15;6.97;;;3.70;;
32365;SDS011;18837;46.832;16.838;2023-06-14T09:16:43;7.33;;;3.57;;
32365;SDS011;18837;46.832;16.838;2023-06-14T09:19:14;8.43;;;4.17;;
32365;SDS011;18837;46.832;16.838;2023-06-14T09:21:49;6.73;;;3.80;;
32365;SDS011;18837;46.832;16.838;2023-06-14T09:24:17;6.47;;;3.53;;
32365;SDS011;18837;46.832;16.838;2023-06-14T09:26:44;5.80;;;3.30;;
32365;SDS011;18837;46.832;16.838;2023-06-14T09:29:12;7.87;;;3.60;;
32365;SDS011;18837;46.832;16.838;2023-06-14T09:31:38;6.37;;;4.00;;
32365;SDS011;18837;46.832;16.838;2023-06-14T09:34:05;6.27;;;3.60;;
32365;SDS011;18837;46.832;16.838;2023-06-14T09:36:31;5.13;;;3.60;;
32365;SDS011;18837;46.832;16.838;2023-06-14T09:39:01;4.90;;;3.40;;
32365;SDS011;18837;46.832;16.838;2023-06-14T09:41:36;4.90;;;3.50;;
32365;SDS011;18837;46.832;16.838;2023-06-14T09:44:05;3.57;;;3.27;;
32365;SDS011;18837;46.832;16.838;2023-06-14T09:46:32;4.27;;;3.40;;
32365;SDS011;18837;46.832;16.838;2023-06-14T09:48:59;5.40;;;3.30;;
32365;SDS011;18837;46.832;16.838;2023-06-14T09:51:26;4.40;;;3.33;;
32365;SDS011;18837;46.832;16.838;2023-06-14T09:53:53;5.13;;;3.30;;
32365;SDS011;18837;46.832;16.838;2023-06-14T09:59:10;4.73;;;3.57;;
32365;SDS011;18837;46.832;16.838;2023-06-14T10:01:41;5.27;;;3.33;;
32365;SDS011;18837;46.832;16.838;2023-06-14T10:04:09;5.10;;;3.50;;
32365;SDS011;18837;46.832;16.838;2023-06-14T10:06:43;5.07;;;3.33;;
32365;SDS011;18837;46.832;16.838;2023-06-14T10:09:11;5.17;;;4.07;;
32365;SDS011;18837;46.832;16.838;2023-06-14T10:11:37;4.37;;;3.63;;
32365;SDS011;18837;46.832;16.838;2023-06-14T10:20:03;3.87;;;3.30;;
32365;SDS011;18837;46.832;16.838;2023-06-14T10:22:42;3.83;;;3.50;;
32365;SDS011;18837;46.832;16.838;2023-06-14T10:25:31;3.93;;;3.63;;
32365;SDS011;18837;46.832;16.838;2023-06-14T10:33:55;4.23;;;3.37;;
32365;SDS011;18837;46.832;16.838;2023-06-14T10:41:54;4.60;;;3.83;;
32365;SDS011;18837;46.832;16.838;2023-06-14T10:46:58;4.40;;;3.47;;
32365;SDS011;18837;46.832;16.838;2023-06-14T10:52:26;5.10;;;3.60;;
32365;SDS011;18837;46.832;16.838;2023-06-14T10:57:36;4.63;;;3.80;;
32365;SDS011;18837;46.832;16.838;2023-06-14T11:00:24;4.70;;;4.20;;
32365;SDS011;18837;46.832;16.838;2023-06-14T11:02:55;4.97;;;3.80;;
32365;SDS011;18837;46.832;16.838;2023-06-14T11:05:31;5.40;;;4.20;;
32365;SDS011;18837;46.832;16.838;2023-06-14T11:10:52;7.37;;;3.80;;
32365;SDS011;18837;46.832;16.838;2023-06-14T11:13:24;6.93;;;4.17;;
32365;SDS011;18837;46.832;16.838;2023-06-14T11:15:51;6.23;;;4.07;;
32365;SDS011;18837;46.832;16.838;2023-06-14T11:18:21;4.53;;;3.83;;
32365;SDS011;18837;46.832;16.838;2023-06-14T11:20:52;5.07;;;3.70;;
32365;SDS011;18837;46.832;16.838;2023-06-14T11:29:02;6.37;;;3.67;;
32365;SDS011;18837;46.832;16.838;2023-06-14T11:31:28;5.03;;;3.17;;
32365;SDS011;18837;46.832;16.838;2023-06-14T11:33:55;6.70;;;3.57;;
32365;SDS011;18837;46.832;16.838;2023-06-14T11:36:22;10.60;;;3.77;;
32365;SDS011;18837;46.832;16.838;2023-06-14T11:38:48;4.73;;;3.87;;
32365;SDS011;18837;46.832;16.838;2023-06-14T11:41:20;4.83;;;3.80;;
32365;SDS011;18837;46.832;16.838;2023-06-14T11:43:52;4.17;;;3.77;;
32365;SDS011;18837;46.832;16.838;2023-06-14T11:46:18;5.37;;;3.53;;
32365;SDS011;18837;46.832;16.838;2023-06-14T11:48:49;5.33;;;3.93;;
32365;SDS011;18837;46.832;16.838;2023-06-14T11:51:14;7.83;;;4.20;;
32365;SDS011;18837;46.832;16.838;2023-06-14T11:53:41;5.90;;;3.97;;
32365;SDS011;18837;46.832;16.838;2023-06-14T11:56:17;6.43;;;4.30;;
32365;SDS011;18837;46.832;16.838;2023-06-14T11:58:55;6.23;;;4.00;;
32365;SDS011;18837;46.832;16.838;2023-06-14T12:01:45;6.40;;;4.43;;
32365;SDS011;18837;46.832;16.838;2023-06-14T12:04:23;8.73;;;4.27;;
32365;SDS011;18837;46.832;16.838;2023-06-14T12:06:51;7.53;;;4.13;;
32365;SDS011;18837;46.832;16.838;2023-06-14T12:09:18;5.67;;;4.30;;
32365;SDS011;18837;46.832;16.838;2023-06-14T12:11:44;5.20;;;4.13;;
32365;SDS011;18837;46.832;16.838;2023-06-14T12:14:11;4.20;;;3.80;;
32365;SDS011;18837;46.832;16.838;2023-06-14T12:16:40;7.20;;;4.53;;
32365;SDS011;18837;46.832;16.838;2023-06-14T12:19:16;5.17;;;4.20;;
32365;SDS011;18837;46.832;16.838;2023-06-14T12:21:42;7.60;;;4.07;;
32365;SDS011;18837;46.832;16.838;2023-06-14T12:24:13;5.27;;;4.30;;
32365;SDS011;18837;46.832;16.838;2023-06-14T12:26:39;4.90;;;4.43;;
32365;SDS011;18837;46.832;16.838;2023-06-14T12:29:06;5.07;;;4.10;;
32365;SDS011;18837;46.832;16.838;2023-06-14T12:37:14;4.33;;;3.87;;
32365;SDS011;18837;46.832;16.838;2023-06-14T12:39:41;5.50;;;3.93;;
32365;SDS011;18837;46.832;16.838;2023-06-14T12:42:07;4.53;;;4.10;;
32365;SDS011;18837;46.832;16.838;2023-06-14T12:44:33;7.23;;;4.10;;
32365;SDS011;18837;46.832;16.838;2023-06-14T12:47:00;4.30;;;3.90;;
32365;SDS011;18837;46.832;16.838;2023-06-14T12:49:26;4.67;;;4.03;;
32365;SDS011;18837;46.832;16.838;2023-06-14T12:51:57;6.63;;;4.53;;
32365;SDS011;18837;46.832;16.838;2023-06-14T12:54:23;4.87;;;4.10;;
32365;SDS011;18837;46.832;16.838;2023-06-14T12:56:50;5.23;;;4.27;;
32365;SDS011;18837;46.832;16.838;2023-06-14T12:59:18;4.93;;;3.87;;
32365;SDS011;18837;46.832;16.838;2023-06-14T13:01:44;5.30;;;3.63;;
32365;SDS011;18837;46.832;16.838;2023-06-14T13:04:10;5.97;;;3.87;;
32365;SDS011;18837;46.832;16.838;2023-06-14T13:06:51;6.20;;;3.90;;
32365;SDS011;18837;46.832;16.838;2023-06-14T13:09:29;5.57;;;3.87;;
32365;SDS011;18837;46.832;16.838;2023-06-14T13:11:55;4.77;;;3.77;;
32365;SDS011;18837;46.832;16.838;2023-06-14T13:14:20;5.53;;;3.60;;
32365;SDS011;18837;46.832;16.838;2023-06-14T13:16:46;4.83;;;4.33;;
32365;SDS011;18837;46.832;16.838;2023-06-14T13:19:12;4.07;;;3.57;;
32365;SDS011;18837;46.832;16.838;2023-06-14T13:21:38;3.73;;;3.43;;
32365;SDS011;18837;46.832;16.838;2023-06-14T13:24:16;4.17;;;3.77;;
32365;SDS011;18837;46.832;16.838;2023-06-14T13:26:42;4.70;;;4.27;;
32365;SDS011;18837;46.832;16.838;2023-06-14T13:29:08;4.50;;;3.60;;
32365;SDS011;18837;46.832;16.838;2023-06-14T13:31:33;3.87;;;3.50;;
32365;SDS011;18837;46.832;16.838;2023-06-14T13:33:59;4.90;;;3.70;;
32365;SDS011;18837;46.832;16.838;2023-06-14T13:36:25;4.10;;;3.70;;
32365;SDS011;18837;46.832;16.838;2023-06-14T13:38:51;3.90;;;3.50;;
32365;SDS011;18837;46.832;16.838;2023-06-14T13:41:31;3.93;;;3.53;;
32365;SDS011;18837;46.832;16.838;2023-06-14T13:44:25;4.33;;;3.30;;
32365;SDS011;18837;46.832;16.838;2023-06-14T13:46:51;4.60;;;3.70;;
32365;SDS011;18837;46.832;16.838;2023-06-14T13:49:18;4.00;;;3.60;;
32365;SDS011;18837;46.832;16.838;2023-06-14T13:51:44;4.80;;;3.13;;
32365;SDS011;18837;46.832;16.838;2023-06-14T13:54:11;4.17;;;3.77;;
32365;SDS011;18837;46.832;16.838;2023-06-14T13:56:38;3.83;;;3.30;;
32365;SDS011;18837;46.832;16.838;2023-06-14T13:59:22;4.60;;;3.67;;
32365;SDS011;18837;46.832;16.838;2023-06-14T14:01:48;4.23;;;3.50;;
32365;SDS011;18837;46.832;16.838;2023-06-14T14:04:14;3.63;;;3.33;;
32365;SDS011;18837;46.832;16.838;2023-06-14T14:06:39;5.37;;;3.70;;
32365;SDS011;18837;46.832;16.838;2023-06-14T14:09:05;3.87;;;3.57;;
32365;SDS011;18837;46.832;16.838;2023-06-14T14:11:32;4.70;;;3.67;;
32365;SDS011;18837;46.832;16.838;2023-06-14T14:13:57;3.50;;;3.20;;
32365;SDS011;18837;46.832;16.838;2023-06-14T14:19:22;4.10;;;3.70;;
32365;SDS011;18837;46.832;16.838;2023-06-14T14:21:48;4.07;;;3.73;;
32365;SDS011;18837;46.832;16.838;2023-06-14T14:24:13;5.03;;;3.60;;
32365;SDS011;18837;46.832;16.838;2023-06-14T14:26:39;3.70;;;3.40;;
32365;SDS011;18837;46.832;16.838;2023-06-14T14:29:05;4.23;;;3.33;;
32365;SDS011;18837;46.832;16.838;2023-06-14T14:31:31;4.23;;;3.57;;
32365;SDS011;18837;46.832;16.838;2023-06-14T14:34:12;5.37;;;3.30;;
32365;SDS011;18837;46.832;16.838;2023-06-14T14:36:38;5.37;;;3.40;;
32365;SDS011;18837;46.832;16.838;2023-06-14T14:39:07;4.73;;;3.53;;
32365;SDS011;18837;46.832;16.838;2023-06-14T14:41:33;3.70;;;3.37;;
32365;SDS011;18837;46.832;16.838;2023-06-14T14:44:02;4.33;;;3.47;;
32365;SDS011;18837;46.832;16.838;2023-06-14T14:46:29;3.80;;;3.13;;
32365;SDS011;18837;46.832;16.838;2023-06-14T14:49:04;3.83;;;3.10;;
32365;SDS011;18837;46.832;16.838;2023-06-14T14:51:42;3.23;;;2.93;;
32365;SDS011;18837;46.832;16.838;2023-06-14T14:54:14;4.77;;;3.63;;
32365;SDS011;18837;46.832;16.838;2023-06-14T14:56:39;4.07;;;3.40;;
32365;SDS011;18837;46.832;16.838;2023-06-14T14:59:05;3.63;;;3.30;;
32365;SDS011;18837;46.832;16.838;2023-06-14T15:01:31;3.53;;;3.23;;
32365;SDS011;18837;46.832;16.838;2023-06-14T15:03:57;3.40;;;2.90;;
32365;SDS011;18837;46.832;16.838;2023-06-14T15:06:22;3.40;;;3.17;;
32365;SDS011;18837;46.832;16.838;2023-06-14T15:08:53;3.30;;;3.00;;
32365;SDS011;18837;46.832;16.838;2023-06-14T15:11:19;3.50;;;3.20;;
32365;SDS011;18837;46.832;16.838;2023-06-14T15:13:46;3.70;;;3.40;;
32365;SDS011;18837;46.832;16.838;2023-06-14T15:16:12;4.07;;;3.47;;
32365;SDS011;18837;46.832;16.838;2023-06-14T15:18:38;3.80;;;3.50;;
32365;SDS011;18837;46.832;16.838;2023-06-14T15:21:04;3.63;;;3.27;;
32365;SDS011;18837;46.832;16.838;2023-06-14T15:23:38;4.13;;;3.43;;
32365;SDS011;18837;46.832;16.838;2023-06-14T15:26:13;4.67;;;3.57;;
32365;SDS011;18837;46.832;16.838;2023-06-14T15:28:40;3.17;;;2.87;;